< < Back
Terminal Aerodrome Forecast


Current Version              Previous Versions:   1  2  3  4  5  6  7  8  9  

Terminal Aerodrome Forecast

478
FTUS42 KGSP 280100 AAA
TAFAND
TAF AMD
KAND 280139Z 2802/2824 25012KT P6SM SCT250
     FM280400 24008KT P6SM BKN050
     FM280800 25010KT P6SM VCTS BKN050CB
     FM281100 27012KT P6SM FEW150=

Latest METAR

465
SAUS70 KWBC 280800 RRG
MTRAND
METAR KAND 280756Z AUTO 26008KT 10SM FEW055 FEW100 27/22 A2989 RMK AO2
SLP108 T02720222


USA.gov is the U.S. government's official web portal to all federal, state and local government web resources and services.